Time;durP1;ratioP1;P1;durP2;ratioP2;P2;SDS_P1;SDS_P2;PMS_P1;PMS_P2;Temp;Humidity;BMP_temperature;BMP_pressure;BME280_temperature;BME280_humidity;BME280_pressure;Samples;Min_cycle;Max_cycle;Signal;HPM_P1;HPM_P2
2023/06/17 00:00:48;;;;;;;7.43;4.28;;;;;;;;;;5033185;28;20041;-66
2023/06/17 00:03:34;;;;;;;9.40;4.20;;;;;;;;;;5049267;28;20449;-64
2023/06/17 00:06:19;;;;;;;6.38;3.95;;;;;;;;;;5052926;28;20032;-70
2023/06/17 00:09:04;;;;;;;7.85;4.60;;;;;;;;;;5039150;28;20202;-69
2023/06/17 00:11:51;;;;;;;8.60;5.05;;;;;;;;;;5062239;28;20031;-71
2023/06/17 00:14:36;;;;;;;7.28;4.63;;;;;;;;;;5056755;28;20427;-70
2023/06/17 00:17:22;;;;;;;8.75;4.75;;;;;;;;;;5041259;28;20186;-72
2023/06/17 00:20:11;;;;;;;10.02;4.75;;;;;;;;;;5055907;28;20140;-71
2023/06/17 00:22:56;;;;;;;7.15;3.78;;;;;;;;;;5057894;28;20109;-70
2023/06/17 00:25:41;;;;;;;7.22;4.43;;;;;;;;;;5061293;28;20051;-61
2023/06/17 00:28:27;;;;;;;8.35;4.57;;;;;;;;;;5042937;28;20041;-61
2023/06/17 00:31:12;;;;;;;9.82;4.63;;;;;;;;;;5053523;28;20060;-62
2023/06/17 00:33:57;;;;;;;6.90;4.68;;;;;;;;;;5057295;28;20028;-61
2023/06/17 00:36:42;;;;;;;8.07;4.70;;;;;;;;;;5055457;28;20086;-61
2023/06/17 00:39:28;;;;;;;8.18;4.78;;;;;;;;;;5062260;28;20391;-63
2023/06/17 00:42:13;;;;;;;7.13;4.40;;;;;;;;;;5045461;28;20040;-67
2023/06/17 00:44:58;;;;;;;9.23;5.55;;;;;;;;;;5067854;28;20107;-66
2023/06/17 00:47:43;;;;;;;8.38;4.85;;;;;;;;;;5052051;28;20025;-66
2023/06/17 00:50:29;;;;;;;7.55;4.70;;;;;;;;;;5051230;28;20056;-70
2023/06/17 00:53:14;;;;;;;10.68;4.90;;;;;;;;;;5048060;28;20059;-70
2023/06/17 00:56:00;;;;;;;6.22;3.83;;;;;;;;;;5065117;28;20032;-67
2023/06/17 00:58:46;;;;;;;7.07;4.45;;;;;;;;;;5058018;28;20666;-64
2023/06/17 01:01:35;;;;;;;9.07;4.20;;;;;;;;;;5050720;28;20044;-68
2023/06/17 01:04:20;;;;;;;7.83;4.73;;;;;;;;;;5047769;28;20043;-66
2023/06/17 01:07:12;;;;;;;7.18;4.35;;;;;;;;;;5056084;28;20055;-66
2023/06/17 01:10:02;;;;;;;10.13;6.68;;;;;;;;;;5059145;28;20127;-66
2023/06/17 01:12:48;;;;;;;8.73;4.85;;;;;;;;;;5049103;28;20028;-66
2023/06/17 01:15:36;;;;;;;7.40;4.82;;;;;;;;;;5047018;28;20483;-67
2023/06/17 01:18:21;;;;;;;7.32;4.53;;;;;;;;;;5061951;28;20452;-60
2023/06/17 01:21:08;;;;;;;9.20;4.28;;;;;;;;;;5056458;28;20380;-60
2023/06/17 01:23:54;;;;;;;7.05;4.20;;;;;;;;;;5053731;28;20198;-60
2023/06/17 01:26:39;;;;;;;7.82;4.45;;;;;;;;;;5068230;28;20087;-59
2023/06/17 01:29:26;;;;;;;7.80;4.32;;;;;;;;;;5069399;28;20554;-62
2023/06/17 01:32:11;;;;;;;6.40;4.13;;;;;;;;;;5058356;28;20577;-60
2023/06/17 01:35:00;;;;;;;8.88;4.72;;;;;;;;;;5053954;28;20036;-67
2023/06/17 01:37:48;;;;;;;9.32;5.13;;;;;;;;;;5063386;28;20044;-64
2023/06/17 01:40:33;;;;;;;9.18;4.95;;;;;;;;;;5049240;28;20039;-63
2023/06/17 01:43:19;;;;;;;8.38;4.30;;;;;;;;;;5050092;28;20048;-64
2023/06/17 01:46:05;;;;;;;7.97;4.68;;;;;;;;;;5055969;28;20119;-65
2023/06/17 01:48:52;;;;;;;8.68;4.70;;;;;;;;;;5065374;28;20028;-64
2023/06/17 01:51:37;;;;;;;9.15;5.00;;;;;;;;;;5054567;28;20024;-66
2023/06/17 01:54:23;;;;;;;7.03;5.03;;;;;;;;;;5040151;28;20075;-65
2023/06/17 01:57:09;;;;;;;8.25;4.40;;;;;;;;;;5052516;28;20036;-65
2023/06/17 01:59:54;;;;;;;9.38;5.10;;;;;;;;;;5064601;28;20058;-64
2023/06/17 02:02:40;;;;;;;7.63;4.60;;;;;;;;;;5051454;28;20036;-64
2023/06/17 02:05:25;;;;;;;7.30;4.35;;;;;;;;;;5048115;28;20063;-64
2023/06/17 02:08:11;;;;;;;6.53;4.20;;;;;;;;;;5058581;28;20072;-66
2023/06/17 02:10:56;;;;;;;7.45;5.30;;;;;;;;;;5066565;28;20482;-66
2023/06/17 02:13:42;;;;;;;8.38;4.60;;;;;;;;;;5067439;28;20028;-69
2023/06/17 02:16:27;;;;;;;8.88;4.55;;;;;;;;;;5062922;28;20028;-66
2023/06/17 02:19:12;;;;;;;9.52;4.75;;;;;;;;;;5056928;28;20352;-67
2023/06/17 02:21:58;;;;;;;8.98;5.43;;;;;;;;;;5060028;28;20032;-68
2023/06/17 02:24:44;;;;;;;7.95;4.43;;;;;;;;;;5048987;28;20098;-69
2023/06/17 02:27:29;;;;;;;7.38;4.93;;;;;;;;;;5063631;28;20175;-69
2023/06/17 02:30:14;;;;;;;8.52;4.60;;;;;;;;;;5062297;28;20051;-68
2023/06/17 02:33:00;;;;;;;8.32;4.65;;;;;;;;;;5059656;28;20039;-64
2023/06/17 02:35:46;;;;;;;9.95;4.95;;;;;;;;;;5064286;28;20036;-64
2023/06/17 02:38:32;;;;;;;8.00;4.25;;;;;;;;;;5069848;28;20082;-65
2023/06/17 02:41:17;;;;;;;5.97;3.95;;;;;;;;;;5063450;28;20051;-69
2023/06/17 02:44:03;;;;;;;7.00;4.70;;;;;;;;;;5059297;28;20048;-66
2023/06/17 02:46:48;;;;;;;8.35;4.15;;;;;;;;;;5054838;28;20033;-65
2023/06/17 02:49:33;;;;;;;8.40;5.13;;;;;;;;;;5069035;28;20399;-74
2023/06/17 02:52:19;;;;;;;6.25;3.97;;;;;;;;;;5057623;28;20028;-62
2023/06/17 02:55:05;;;;;;;7.75;5.10;;;;;;;;;;5056183;28;20106;-63
2023/06/17 02:57:50;;;;;;;7.82;3.90;;;;;;;;;;5042351;28;20383;-62
2023/06/17 03:00:36;;;;;;;6.55;4.60;;;;;;;;;;5069777;28;20103;-62
2023/06/17 03:03:34;;;;;;;9.05;4.85;;;;;;;;;;5057798;28;20186;-61
2023/06/17 03:06:21;;;;;;;8.45;4.93;;;;;;;;;;5058973;28;20055;-62
2023/06/17 03:09:08;;;;;;;8.70;4.43;;;;;;;;;;5061130;28;20037;-61
2023/06/17 03:11:53;;;;;;;7.55;4.40;;;;;;;;;;5058484;28;20041;-65
2023/06/17 03:14:38;;;;;;;7.18;4.20;;;;;;;;;;5057291;28;20032;-65
2023/06/17 03:17:27;;;;;;;8.27;5.13;;;;;;;;;;5054505;28;20111;-64
2023/06/17 03:20:12;;;;;;;10.10;4.93;;;;;;;;;;5047786;28;20033;-63
2023/06/17 03:22:57;;;;;;;10.30;4.20;;;;;;;;;;5048175;28;20282;-63
2023/06/17 03:25:43;;;;;;;8.63;4.40;;;;;;;;;;5057969;28;20044;-71
2023/06/17 03:28:29;;;;;;;11.70;7.00;;;;;;;;;;5050145;28;20048;-72
2023/06/17 03:31:20;;;;;;;10.18;6.20;;;;;;;;;;5068643;28;20040;-72
2023/06/17 03:34:05;;;;;;;9.55;5.25;;;;;;;;;;5063154;28;20071;-73
2023/06/17 03:36:50;;;;;;;8.32;5.30;;;;;;;;;;5044252;28;20105;-72
2023/06/17 03:39:36;;;;;;;7.53;5.13;;;;;;;;;;5055584;28;20056;-71
2023/06/17 03:42:21;;;;;;;10.75;5.20;;;;;;;;;;5065556;28;20040;-75
2023/06/17 03:45:06;;;;;;;7.55;4.63;;;;;;;;;;5043549;28;20051;-64
2023/06/17 03:47:52;;;;;;;6.38;4.25;;;;;;;;;;5062859;28;20391;-66
2023/06/17 03:50:37;;;;;;;10.70;5.15;;;;;;;;;;5048578;28;20036;-63
2023/06/17 03:53:22;;;;;;;7.25;4.35;;;;;;;;;;5055016;28;20094;-64
2023/06/17 03:56:07;;;;;;;8.85;4.90;;;;;;;;;;5062778;28;20048;-66
2023/06/17 03:58:53;;;;;;;7.78;4.63;;;;;;;;;;5057460;28;20030;-65
2023/06/17 04:01:40;;;;;;;9.93;4.43;;;;;;;;;;5067405;28;20102;-62
2023/06/17 04:04:28;;;;;;;7.95;5.07;;;;;;;;;;5060828;28;20043;-69
2023/06/17 04:07:13;;;;;;;8.68;4.40;;;;;;;;;;5049991;28;21422;-70
2023/06/17 04:09:59;;;;;;;8.20;4.65;;;;;;;;;;5058887;28;20063;-70
2023/06/17 04:12:44;;;;;;;7.00;4.72;;;;;;;;;;5063702;28;20075;-69
2023/06/17 04:15:29;;;;;;;8.60;4.57;;;;;;;;;;5067297;28;20036;-68
2023/06/17 04:18:14;;;;;;;6.10;3.97;;;;;;;;;;5058333;28;20044;-68
2023/06/17 04:21:00;;;;;;;8.50;4.80;;;;;;;;;;5051816;28;20042;-64
2023/06/17 04:23:45;;;;;;;6.53;4.47;;;;;;;;;;5059362;28;20029;-68
2023/06/17 04:26:30;;;;;;;8.18;4.63;;;;;;;;;;5044042;28;20043;-69
2023/06/17 04:29:15;;;;;;;6.32;4.13;;;;;;;;;;5054960;28;20594;-68
2023/06/17 04:32:01;;;;;;;6.80;4.78;;;;;;;;;;5066131;28;20151;-68
2023/06/17 04:34:47;;;;;;;9.55;5.38;;;;;;;;;;5066995;28;20032;-67
2023/06/17 04:37:33;;;;;;;7.65;4.43;;;;;;;;;;5062938;28;20102;-69
2023/06/17 04:40:18;;;;;;;8.95;5.35;;;;;;;;;;5050625;28;20045;-64
2023/06/17 04:43:03;;;;;;;7.55;4.93;;;;;;;;;;5056619;28;20151;-64
2023/06/17 04:45:49;;;;;;;10.60;5.50;;;;;;;;;;5061693;28;20059;-65
2023/06/17 04:48:34;;;;;;;8.45;4.78;;;;;;;;;;5042325;28;20050;-64
2023/06/17 04:51:20;;;;;;;9.20;6.05;;;;;;;;;;5055317;28;20450;-62
2023/06/17 04:54:05;;;;;;;7.68;4.78;;;;;;;;;;5056868;28;20086;-65
2023/06/17 04:56:51;;;;;;;7.95;5.10;;;;;;;;;;5039717;28;20481;-62
2023/06/17 04:59:36;;;;;;;8.18;4.72;;;;;;;;;;5050839;28;20368;-64
2023/06/17 05:02:22;;;;;;;7.80;4.82;;;;;;;;;;5058357;28;20058;-65
2023/06/17 05:05:07;;;;;;;10.38;4.97;;;;;;;;;;5060918;28;20040;-63
2023/06/17 05:07:52;;;;;;;6.90;4.30;;;;;;;;;;5047092;28;20043;-64
2023/06/17 05:10:38;;;;;;;8.15;4.68;;;;;;;;;;5053005;28;20385;-64
2023/06/17 05:13:23;;;;;;;7.63;4.57;;;;;;;;;;5055278;28;20032;-64
2023/06/17 05:16:08;;;;;;;7.65;4.07;;;;;;;;;;5051084;28;20039;-67
2023/06/17 05:18:53;;;;;;;7.90;4.90;;;;;;;;;;5051812;28;20029;-60
2023/06/17 05:21:39;;;;;;;9.02;5.53;;;;;;;;;;5051432;28;20129;-60
2023/06/17 05:24:24;;;;;;;9.82;4.78;;;;;;;;;;5048161;28;20402;-61
2023/06/17 05:27:10;;;;;;;8.18;4.68;;;;;;;;;;5058772;28;20502;-59
2023/06/17 05:29:55;;;;;;;8.52;4.43;;;;;;;;;;5053229;28;20048;-60
2023/06/17 05:32:40;;;;;;;6.95;5.22;;;;;;;;;;5048370;28;20460;-60
2023/06/17 05:35:27;;;;;;;8.18;5.03;;;;;;;;;;5049489;28;20384;-73
2023/06/17 05:38:12;;;;;;;9.00;4.72;;;;;;;;;;5047906;28;20276;-64
2023/06/17 05:40:57;;;;;;;7.10;5.07;;;;;;;;;;5069941;28;20070;-61
2023/06/17 05:43:43;;;;;;;6.45;4.20;;;;;;;;;;5057782;28;20119;-63
2023/06/17 05:46:28;;;;;;;8.38;4.68;;;;;;;;;;5054055;28;20037;-62
2023/06/17 05:49:14;;;;;;;10.02;4.97;;;;;;;;;;5054580;28;20494;-62
2023/06/17 05:51:59;;;;;;;7.80;5.22;;;;;;;;;;5050168;28;20153;-67
2023/06/17 05:54:45;;;;;;;9.50;5.43;;;;;;;;;;5067028;28;20125;-73
2023/06/17 05:57:30;;;;;;;8.32;5.07;;;;;;;;;;5050038;28;20146;-65
2023/06/17 06:00:15;;;;;;;9.80;5.55;;;;;;;;;;5052398;28;20102;-66
2023/06/17 06:03:00;;;;;;;8.13;5.03;;;;;;;;;;5050786;28;20433;-67
2023/06/17 06:05:46;;;;;;;13.82;5.35;;;;;;;;;;5052904;28;20047;-70
2023/06/17 06:08:31;;;;;;;6.53;4.45;;;;;;;;;;5051634;28;20036;-64
2023/06/17 06:11:16;;;;;;;8.75;4.95;;;;;;;;;;5050860;28;20052;-66
2023/06/17 06:14:01;;;;;;;8.75;4.72;;;;;;;;;;5037705;28;20033;-63
2023/06/17 06:16:47;;;;;;;10.02;5.55;;;;;;;;;;5049952;28;20063;-62
2023/06/17 06:19:32;;;;;;;9.30;5.10;;;;;;;;;;5051165;28;20032;-65
2023/06/17 06:22:18;;;;;;;7.13;5.00;;;;;;;;;;5067469;28;20036;-62
2023/06/17 06:25:04;;;;;;;6.90;4.43;;;;;;;;;;5050956;28;20036;-64
2023/06/17 06:27:50;;;;;;;7.85;5.10;;;;;;;;;;5055143;28;20033;-66
2023/06/17 06:30:35;;;;;;;7.45;4.65;;;;;;;;;;5053938;28;20040;-62
2023/06/17 06:33:22;;;;;;;9.27;5.10;;;;;;;;;;5053262;28;20036;-64
2023/06/17 06:36:09;;;;;;;8.25;4.45;;;;;;;;;;5055468;28;20072;-68
2023/06/17 06:38:54;;;;;;;11.07;5.22;;;;;;;;;;5057758;28;20475;-66
2023/06/17 06:41:39;;;;;;;7.85;5.18;;;;;;;;;;5043973;28;20056;-65
2023/06/17 06:44:25;;;;;;;8.30;4.78;;;;;;;;;;5055190;28;20040;-66
2023/06/17 06:47:10;;;;;;;10.98;5.38;;;;;;;;;;5071198;28;20062;-72
2023/06/17 06:49:55;;;;;;;8.98;5.00;;;;;;;;;;5044349;28;20379;-69
2023/06/17 06:52:40;;;;;;;8.98;5.25;;;;;;;;;;5056683;28;20175;-65
2023/06/17 06:55:26;;;;;;;9.02;4.78;;;;;;;;;;5052477;28;20032;-64
2023/06/17 06:58:11;;;;;;;9.73;4.28;;;;;;;;;;5048035;28;20093;-68
2023/06/17 07:00:56;;;;;;;6.20;4.90;;;;;;;;;;5050850;28;20036;-67
2023/06/17 07:03:41;;;;;;;12.80;5.22;;;;;;;;;;5051266;28;20490;-67
2023/06/17 07:06:27;;;;;;;10.13;4.60;;;;;;;;;;5044664;28;20040;-68
2023/06/17 07:09:12;;;;;;;6.82;4.40;;;;;;;;;;5049686;28;20098;-61
2023/06/17 07:11:57;;;;;;;8.65;5.25;;;;;;;;;;5054161;28;20566;-61
2023/06/17 07:14:42;;;;;;;9.05;4.38;;;;;;;;;;5050686;28;20472;-64
2023/06/17 07:17:28;;;;;;;8.80;5.13;;;;;;;;;;5063201;28;20032;-66
2023/06/17 07:20:13;;;;;;;7.05;4.80;;;;;;;;;;5048535;28;20509;-62
2023/06/17 07:22:58;;;;;;;7.65;5.30;;;;;;;;;;5050562;28;20040;-62
2023/06/17 07:25:43;;;;;;;8.57;6.10;;;;;;;;;;5048870;28;20064;-70
2023/06/17 07:28:29;;;;;;;8.07;4.25;;;;;;;;;;5048880;28;20043;-69
2023/06/17 07:31:14;;;;;;;8.23;4.30;;;;;;;;;;5051008;28;20123;-72
2023/06/17 07:33:59;;;;;;;6.53;4.22;;;;;;;;;;5062346;28;20036;-69
2023/06/17 07:36:45;;;;;;;7.18;4.25;;;;;;;;;;5053726;28;20425;-69
2023/06/17 07:39:30;;;;;;;7.13;4.50;;;;;;;;;;5045475;28;20032;-70
2023/06/17 07:42:16;;;;;;;8.60;4.60;;;;;;;;;;5046404;28;20411;-69
2023/06/17 07:45:01;;;;;;;7.38;4.55;;;;;;;;;;5045438;28;20035;-65
2023/06/17 07:47:47;;;;;;;8.35;4.53;;;;;;;;;;5045059;28;20032;-67
2023/06/17 07:50:33;;;;;;;7.60;4.80;;;;;;;;;;5039814;28;20028;-63
2023/06/17 07:53:18;;;;;;;8.65;5.15;;;;;;;;;;5038270;28;20027;-69
2023/06/17 07:56:04;;;;;;;8.88;5.15;;;;;;;;;;5052887;28;20095;-70
2023/06/17 07:58:49;;;;;;;13.90;5.45;;;;;;;;;;5045027;28;20024;-70
2023/06/17 08:01:35;;;;;;;7.65;5.20;;;;;;;;;;5047705;28;20309;-68
2023/06/17 08:04:20;;;;;;;10.20;5.20;;;;;;;;;;5047632;28;20042;-72
2023/06/17 08:07:05;;;;;;;8.43;5.03;;;;;;;;;;5046420;28;20060;-70
2023/06/17 08:09:50;;;;;;;9.00;4.72;;;;;;;;;;5057130;28;20559;-68
2023/06/17 08:12:36;;;;;;;9.18;5.05;;;;;;;;;;5048954;28;20027;-69
2023/06/17 08:15:22;;;;;;;6.45;4.32;;;;;;;;;;5047656;28;20494;-70
2023/06/17 08:18:07;;;;;;;11.07;4.93;;;;;;;;;;5048445;28;20055;-68
2023/06/17 08:20:52;;;;;;;6.72;4.30;;;;;;;;;;5048568;28;20029;-72
2023/06/17 08:23:37;;;;;;;7.60;4.60;;;;;;;;;;5047422;28;20112;-68
2023/06/17 08:26:24;;;;;;;8.02;4.82;;;;;;;;;;5048620;28;20043;-71
2023/06/17 08:29:15;;;;;;;9.07;6.03;;;;;;;;;;5044752;28;20121;-72
2023/06/17 08:32:01;;;;;;;8.05;5.13;;;;;;;;;;5037475;28;20025;-73
2023/06/17 08:34:46;;;;;;;13.02;5.63;;;;;;;;;;5047740;28;20214;-71
2023/06/17 08:37:33;;;;;;;8.27;5.55;;;;;;;;;;5044974;28;20074;-71
2023/06/17 08:40:19;;;;;;;9.25;5.30;;;;;;;;;;5049937;28;20035;-73
2023/06/17 08:43:05;;;;;;;7.72;5.07;;;;;;;;;;5046741;28;20248;-69
2023/06/17 08:45:53;;;;;;;8.57;5.55;;;;;;;;;;5044113;28;20176;-70
2023/06/17 08:48:39;;;;;;;7.82;4.60;;;;;;;;;;5050970;28;20403;-68
2023/06/17 08:51:25;;;;;;;9.52;5.07;;;;;;;;;;5046013;28;20048;-70
2023/06/17 08:54:10;;;;;;;7.18;4.40;;;;;;;;;;5043419;28;20050;-71
2023/06/17 08:56:55;;;;;;;8.25;5.05;;;;;;;;;;5047439;28;20036;-70
2023/06/17 08:59:41;;;;;;;6.60;4.43;;;;;;;;;;5044602;28;20036;-72
2023/06/17 09:02:26;;;;;;;7.85;5.03;;;;;;;;;;5047163;28;20561;-70
2023/06/17 09:05:12;;;;;;;8.73;5.00;;;;;;;;;;5045293;28;20039;-70
2023/06/17 09:07:58;;;;;;;5.32;4.07;;;;;;;;;;5049986;28;20506;-69
2023/06/17 09:10:43;;;;;;;7.72;4.50;;;;;;;;;;5042890;28;20032;-69
2023/06/17 09:13:28;;;;;;;20.77;9.85;;;;;;;;;;5063016;28;20052;-68
2023/06/17 09:16:14;;;;;;;32.05;10.95;;;;;;;;;;5065140;28;20491;-67
2023/06/17 09:19:03;;;;;;;8.15;4.70;;;;;;;;;;5052493;28;20024;-74
2023/06/17 09:21:48;;;;;;;10.07;4.85;;;;;;;;;;5050989;28;20084;-70
2023/06/17 09:24:33;;;;;;;6.68;4.57;;;;;;;;;;5049769;28;20515;-72
2023/06/17 09:27:22;;;;;;;8.00;4.32;;;;;;;;;;5051585;28;20040;-71
2023/06/17 09:30:09;;;;;;;8.60;4.60;;;;;;;;;;5061880;28;20580;-70
2023/06/17 09:32:55;;;;;;;4.15;3.47;;;;;;;;;;5052906;28;20449;-75
2023/06/17 09:35:40;;;;;;;5.60;4.07;;;;;;;;;;5037769;28;20033;-71
2023/06/17 09:38:26;;;;;;;4.95;3.70;;;;;;;;;;5049523;28;20060;-69
2023/06/17 09:41:14;;;;;;;8.23;3.70;;;;;;;;;;5054489;28;20055;-70
2023/06/17 09:44:00;;;;;;;6.07;4.07;;;;;;;;;;5055471;28;20418;-73
2023/06/17 09:46:46;;;;;;;4.75;3.47;;;;;;;;;;5042161;28;20268;-70
2023/06/17 09:49:32;;;;;;;6.50;3.70;;;;;;;;;;5034117;28;20032;-71
2023/06/17 09:52:18;;;;;;;6.40;3.58;;;;;;;;;;5063011;28;20063;-74
2023/06/17 09:55:04;;;;;;;8.10;4.03;;;;;;;;;;5055681;28;20033;-70
2023/06/17 09:57:55;;;;;;;5.97;3.90;;;;;;;;;;5039440;28;20036;-72
2023/06/17 10:00:41;;;;;;;5.45;3.30;;;;;;;;;;5052471;28;20107;-69
2023/06/17 10:03:26;;;;;;;5.47;3.60;;;;;;;;;;5053310;28;20079;-70
2023/06/17 10:06:13;;;;;;;7.45;3.92;;;;;;;;;;5054194;28;20040;-69
2023/06/17 10:08:59;;;;;;;5.65;3.60;;;;;;;;;;5048826;28;20368;-71
2023/06/17 10:11:46;;;;;;;5.05;3.70;;;;;;;;;;5053048;28;20601;-74
2023/06/17 10:14:32;;;;;;;7.22;4.05;;;;;;;;;;5054607;28;20036;-74
2023/06/17 10:17:19;;;;;;;11.30;4.03;;;;;;;;;;5043835;28;20039;-73
2023/06/17 10:20:08;;;;;;;6.60;4.60;;;;;;;;;;5054096;28;20387;-75
2023/06/17 10:22:55;;;;;;;3.75;3.05;;;;;;;;;;5040663;28;20437;-75
2023/06/17 10:25:40;;;;;;;7.45;4.40;;;;;;;;;;5070350;28;20040;-73
2023/06/17 10:28:41;;;;;;;9.60;4.38;;;;;;;;;;5047096;28;20464;-75
2023/06/17 10:31:27;;;;;;;8.15;3.72;;;;;;;;;;5048544;28;20478;-70
2023/06/17 10:34:16;;;;;;;9.13;3.60;;;;;;;;;;5055562;28;20082;-72
2023/06/17 10:37:01;;;;;;;8.00;4.40;;;;;;;;;;5058800;28;20035;-71
2023/06/17 10:39:51;;;;;;;8.40;3.92;;;;;;;;;;5052830;28;20115;-71
2023/06/17 10:42:36;;;;;;;6.40;3.83;;;;;;;;;;5059543;28;20036;-69
2023/06/17 10:45:22;;;;;;;9.68;4.13;;;;;;;;;;5060176;28;20078;-69
2023/06/17 10:48:22;;;;;;;6.60;3.63;;;;;;;;;;5045645;28;20043;-70
2023/06/17 10:51:10;;;;;;;5.68;3.80;;;;;;;;;;5054021;28;20043;-73
2023/06/17 10:53:56;;;;;;;5.80;4.35;;;;;;;;;;5049343;28;20123;-74
2023/06/17 10:56:51;;;;;;;5.30;3.90;;;;;;;;;;5054138;28;20040;-75
2023/06/17 10:59:36;;;;;;;7.93;4.55;;;;;;;;;;5051840;28;20050;-74
2023/06/17 11:02:21;;;;;;;8.50;3.72;;;;;;;;;;5053547;28;20040;-73
2023/06/17 11:05:07;;;;;;;6.47;4.20;;;;;;;;;;5050406;28;20064;-73
2023/06/17 11:07:52;;;;;;;7.47;4.03;;;;;;;;;;5052412;28;20085;-68
2023/06/17 11:10:37;;;;;;;7.57;4.07;;;;;;;;;;5057121;28;20028;-67
2023/06/17 11:13:23;;;;;;;9.25;4.47;;;;;;;;;;5053771;28;20032;-67
2023/06/17 11:16:09;;;;;;;6.72;4.03;;;;;;;;;;5047603;28;20086;-67
2023/06/17 11:18:54;;;;;;;6.72;4.00;;;;;;;;;;5045860;28;20090;-67
2023/06/17 11:21:39;;;;;;;5.03;3.08;;;;;;;;;;5046928;28;20525;-67
2023/06/17 11:24:25;;;;;;;7.13;3.55;;;;;;;;;;5053874;28;20028;-70
2023/06/17 11:27:11;;;;;;;4.78;3.17;;;;;;;;;;5047532;28;20039;-71
2023/06/17 11:29:57;;;;;;;7.38;3.88;;;;;;;;;;5074019;28;20093;-70
2023/06/17 11:32:42;;;;;;;6.75;3.38;;;;;;;;;;5051955;28;20437;-72
2023/06/17 11:35:27;;;;;;;7.10;4.50;;;;;;;;;;5053243;28;20052;-69
2023/06/17 11:38:13;;;;;;;5.28;3.60;;;;;;;;;;5034390;28;20044;-70
2023/06/17 11:40:59;;;;;;;6.70;4.10;;;;;;;;;;5051187;28;20439;-69
2023/06/17 11:43:45;;;;;;;5.93;4.28;;;;;;;;;;5045210;28;20519;-68
2023/06/17 11:46:30;;;;;;;6.57;3.95;;;;;;;;;;5053762;28;20581;-69
2023/06/17 11:49:15;;;;;;;5.85;3.72;;;;;;;;;;5054494;28;20499;-69
2023/06/17 11:52:09;;;;;;;4.30;3.20;;;;;;;;;;5053349;28;20158;-68
2023/06/17 11:54:55;;;;;;;6.95;3.50;;;;;;;;;;5044203;28;20055;-68
2023/06/17 11:57:42;;;;;;;4.97;3.40;;;;;;;;;;5053571;28;20039;-68
2023/06/17 12:00:28;;;;;;;5.05;3.55;;;;;;;;;;5048119;28;20121;-69
2023/06/17 12:03:14;;;;;;;4.35;3.20;;;;;;;;;;5049365;28;20043;-76
2023/06/17 12:05:59;;;;;;;6.38;4.20;;;;;;;;;;5061291;28;20040;-72
2023/06/17 12:08:45;;;;;;;4.53;3.33;;;;;;;;;;5054476;28;20082;-74
2023/06/17 12:11:31;;;;;;;5.82;4.00;;;;;;;;;;5039098;28;20033;-72
2023/06/17 12:14:19;;;;;;;5.15;3.60;;;;;;;;;;5049433;28;20396;-74
2023/06/17 12:17:04;;;;;;;6.88;3.65;;;;;;;;;;5053533;28;20065;-73
2023/06/17 12:19:50;;;;;;;4.47;3.33;;;;;;;;;;5051582;28;20493;-70
2023/06/17 12:22:35;;;;;;;5.13;3.90;;;;;;;;;;5052065;28;20479;-70
2023/06/17 12:25:20;;;;;;;8.43;4.53;;;;;;;;;;5055409;28;20044;-70
2023/06/17 12:28:06;;;;;;;5.60;3.97;;;;;;;;;;5047292;28;20033;-70
2023/06/17 12:30:51;;;;;;;6.40;3.35;;;;;;;;;;5037119;28;20062;-69
2023/06/17 12:33:37;;;;;;;4.93;3.33;;;;;;;;;;5052617;28;20145;-70
2023/06/17 12:36:23;;;;;;;6.25;3.67;;;;;;;;;;5052136;28;20487;-71
2023/06/17 12:39:08;;;;;;;6.10;3.70;;;;;;;;;;5037701;28;20036;-75
2023/06/17 12:41:53;;;;;;;6.75;4.05;;;;;;;;;;5052102;28;20029;-74
2023/06/17 12:44:38;;;;;;;4.95;3.58;;;;;;;;;;5052412;28;20032;-73
2023/06/17 12:47:25;;;;;;;4.25;3.15;;;;;;;;;;5042148;28;20032;-75
2023/06/17 12:50:11;;;;;;;5.70;4.03;;;;;;;;;;5053228;28;20132;-75
2023/06/17 12:52:56;;;;;;;5.45;3.42;;;;;;;;;;5051660;28;20419;-75
2023/06/17 12:55:41;;;;;;;5.93;3.90;;;;;;;;;;5050621;28;20028;-71
2023/06/17 12:58:27;;;;;;;6.18;3.50;;;;;;;;;;5040905;28;20485;-68
2023/06/17 13:01:12;;;;;;;5.97;3.45;;;;;;;;;;5051889;28;20198;-68
2023/06/17 13:03:58;;;;;;;5.43;3.60;;;;;;;;;;5047789;28;20103;-66
2023/06/17 13:06:44;;;;;;;6.72;3.72;;;;;;;;;;5052806;28;20128;-68
2023/06/17 13:09:29;;;;;;;6.30;3.78;;;;;;;;;;5057383;28;20502;-67
2023/06/17 13:12:14;;;;;;;6.00;3.20;;;;;;;;;;5051747;28;20072;-68
2023/06/17 13:14:59;;;;;;;4.93;2.63;;;;;;;;;;5052036;28;20055;-74
2023/06/17 13:17:45;;;;;;;4.15;3.35;;;;;;;;;;5051893;28;20568;-75
2023/06/17 13:20:30;;;;;;;6.45;4.03;;;;;;;;;;5046493;28;20036;-76
2023/06/17 13:23:15;;;;;;;5.93;3.72;;;;;;;;;;5055553;28;20048;-75
2023/06/17 13:26:01;;;;;;;7.90;3.67;;;;;;;;;;5037619;28;20040;-73
2023/06/17 13:28:47;;;;;;;7.50;3.45;;;;;;;;;;5053584;28;20260;-74
2023/06/17 13:31:32;;;;;;;3.50;2.90;;;;;;;;;;5043317;28;20040;-74
2023/06/17 13:34:18;;;;;;;5.65;3.60;;;;;;;;;;5051033;28;20129;-73
2023/06/17 13:37:04;;;;;;;5.07;3.38;;;;;;;;;;5052316;28;20101;-67
2023/06/17 13:39:49;;;;;;;7.13;3.15;;;;;;;;;;5052516;28;20647;-69
2023/06/17 13:42:34;;;;;;;4.35;3.00;;;;;;;;;;5051327;28;20039;-69
2023/06/17 13:45:19;;;;;;;12.65;4.20;;;;;;;;;;5053261;28;20047;-69
2023/06/17 13:48:05;;;;;;;7.20;4.10;;;;;;;;;;5050201;28;20033;-69
2023/06/17 13:50:50;;;;;;;6.53;3.53;;;;;;;;;;5050702;28;20166;-74
2023/06/17 13:53:35;;;;;;;5.63;3.22;;;;;;;;;;5048749;28;20028;-74
2023/06/17 13:56:20;;;;;;;4.95;3.30;;;;;;;;;;5051541;28;20032;-73
2023/06/17 13:59:06;;;;;;;6.05;3.75;;;;;;;;;;5042567;28;20044;-73
2023/06/17 14:01:52;;;;;;;5.75;3.58;;;;;;;;;;5041006;28;20032;-73
2023/06/17 14:04:37;;;;;;;7.82;3.42;;;;;;;;;;5055220;28;20403;-73
2023/06/17 14:07:22;;;;;;;5.82;3.90;;;;;;;;;;5055938;28;20039;-73
2023/06/17 14:10:08;;;;;;;4.85;3.10;;;;;;;;;;5054663;28;20037;-71
2023/06/17 14:12:54;;;;;;;5.63;3.67;;;;;;;;;;5053898;28;20235;-70
2023/06/17 14:15:39;;;;;;;5.68;3.83;;;;;;;;;;5030180;28;20035;-72
2023/06/17 14:18:24;;;;;;;6.90;4.13;;;;;;;;;;5054472;28;20670;-71
2023/06/17 14:21:30;;;;;;;4.50;3.22;;;;;;;;;;5041774;28;20038;-71
2023/06/17 14:24:15;;;;;;;6.68;3.88;;;;;;;;;;5052525;28;20040;-72
2023/06/17 14:27:07;;;;;;;5.78;3.45;;;;;;;;;;5054247;28;20025;-72
2023/06/17 14:29:52;;;;;;;6.72;3.75;;;;;;;;;;5047019;28;20028;-70
2023/06/17 14:32:38;;;;;;;7.53;4.05;;;;;;;;;;5053589;28;20040;-71
2023/06/17 14:35:24;;;;;;;5.75;3.72;;;;;;;;;;5053687;28;20040;-70
2023/06/17 14:38:10;;;;;;;7.47;3.53;;;;;;;;;;5039220;28;20175;-69
2023/06/17 14:40:55;;;;;;;7.15;3.72;;;;;;;;;;5055268;28;20386;-70
2023/06/17 14:43:40;;;;;;;6.25;4.03;;;;;;;;;;5066412;28;20025;-70
2023/06/17 14:46:26;;;;;;;4.82;3.58;;;;;;;;;;5052963;28;20059;-70
2023/06/17 14:49:11;;;;;;;6.43;3.80;;;;;;;;;;5058339;28;20354;-72
2023/06/17 14:51:56;;;;;;;8.18;3.90;;;;;;;;;;5055242;28;20078;-74
2023/06/17 14:54:42;;;;;;;6.13;4.05;;;;;;;;;;5054764;28;20032;-74
2023/06/17 14:57:27;;;;;;;6.22;3.90;;;;;;;;;;5055248;28;20036;-73
2023/06/17 15:00:15;;;;;;;6.72;3.88;;;;;;;;;;5046330;28;20040;-74
2023/06/17 15:03:07;;;;;;;7.23;4.50;;;;;;;;;;5054342;28;20041;-74
2023/06/17 15:05:52;;;;;;;7.43;4.10;;;;;;;;;;5049392;28;20075;-67
2023/06/17 15:08:37;;;;;;;6.60;4.15;;;;;;;;;;5043039;28;20060;-70
2023/06/17 15:11:23;;;;;;;7.78;3.97;;;;;;;;;;5053791;28;20049;-71
2023/06/17 15:14:08;;;;;;;7.20;4.10;;;;;;;;;;5040054;28;20537;-70
2023/06/17 15:16:53;;;;;;;7.22;4.60;;;;;;;;;;5057778;28;20036;-71
2023/06/17 15:19:38;;;;;;;8.05;4.43;;;;;;;;;;5057457;28;20037;-73
2023/06/17 15:22:23;;;;;;;9.50;3.72;;;;;;;;;;5036420;28;20066;-70
2023/06/17 15:25:09;;;;;;;6.93;4.32;;;;;;;;;;5052415;28;20028;-72
2023/06/17 15:27:56;;;;;;;7.40;4.45;;;;;;;;;;5055949;28;20071;-70
2023/06/17 15:30:41;;;;;;;8.32;4.82;;;;;;;;;;5052810;28;20108;-71
2023/06/17 15:33:26;;;;;;;7.90;5.07;;;;;;;;;;5061535;28;20119;-70
2023/06/17 15:36:11;;;;;;;7.35;3.92;;;;;;;;;;5045255;28;20529;-72
2023/06/17 15:38:57;;;;;;;7.85;5.13;;;;;;;;;;5051502;28;20130;-72
2023/06/17 15:41:44;;;;;;;5.78;4.10;;;;;;;;;;5049827;28;20039;-70
2023/06/17 15:44:30;;;;;;;8.63;4.30;;;;;;;;;;5067208;28;20376;-73
2023/06/17 15:47:15;;;;;;;8.35;4.65;;;;;;;;;;5052731;28;20028;-73
2023/06/17 15:50:00;;;;;;;5.47;3.75;;;;;;;;;;5059530;28;20042;-72
2023/06/17 15:52:45;;;;;;;4.70;3.83;;;;;;;;;;5053852;28;20040;-74
2023/06/17 15:55:31;;;;;;;7.53;4.47;;;;;;;;;;5052676;28;20032;-73
2023/06/17 15:58:16;;;;;;;6.82;4.25;;;;;;;;;;5040914;28;20038;-74
2023/06/17 16:01:02;;;;;;;7.18;4.75;;;;;;;;;;5056267;28;20082;-70
2023/06/17 16:03:48;;;;;;;8.35;4.70;;;;;;;;;;5055662;28;20028;-71
2023/06/17 16:06:33;;;;;;;7.38;4.70;;;;;;;;;;5053700;28;20120;-71
2023/06/17 16:09:18;;;;;;;6.22;4.72;;;;;;;;;;5064431;28;20488;-71
2023/06/17 16:12:03;;;;;;;7.35;4.80;;;;;;;;;;5050274;28;20029;-71
2023/06/17 16:14:49;;;;;;;5.65;3.63;;;;;;;;;;5051543;28;20123;-71
2023/06/17 16:17:35;;;;;;;8.10;5.18;;;;;;;;;;5044530;28;20056;-69
2023/06/17 16:20:20;;;;;;;11.07;5.43;;;;;;;;;;5053095;28;20036;-71
2023/06/17 16:23:05;;;;;;;10.13;5.47;;;;;;;;;;5046865;28;20024;-73
2023/06/17 16:25:51;;;;;;;8.75;4.20;;;;;;;;;;5051837;28;20032;-75
2023/06/17 16:28:36;;;;;;;7.65;4.57;;;;;;;;;;5054991;28;20038;-72
2023/06/17 16:31:21;;;;;;;7.05;4.50;;;;;;;;;;5050803;28;20040;-74
2023/06/17 16:34:07;;;;;;;8.07;5.10;;;;;;;;;;5052992;28;20032;-74